Vincentown, New Jersey
Current Conditions -  °F | °C
As of 12:54 AM on Wednesday 28 Jan 2015 (Local Time) from KVAY Reporting Station
Clear Clear  
Wind Chill:   Ceiling: Unl
Heat Index: 19°   Visibility: 10mi
Dew Point:   Wind: 9mph
Humidity: 59%   Direction: 310°NW
Pressure: 29.91"   Gusts: 20mph
Location:  39.93°N, 74.75°W
Report Text: KVAY 280554Z AUTO 31008G17KT 10SM CLR M07/M14 A2991 RMK AO2 SLP129 T10721139 11017 21072 51017
Loading
Personal Weather Stations






























Interactive Weather Map New forecast layout! Learn more

10-Day Weather Forecast

Advertisements
Track Severe Weather on mobile